sensor_id;sensor_type;location;lat;lon;timestamp;temperature;humidity
15969;DHT22;8085;53.472;9.794;2023-07-13T00:01:48;15.30;92.70
15969;DHT22;8085;53.472;9.794;2023-07-13T00:04:16;15.40;92.80
15969;DHT22;8085;53.472;9.794;2023-07-13T00:06:43;15.20;92.60
15969;DHT22;8085;53.472;9.794;2023-07-13T00:09:11;15.10;92.60
15969;DHT22;8085;53.472;9.794;2023-07-13T00:11:40;15.10;92.60
15969;DHT22;8085;53.472;9.794;2023-07-13T00:14:08;15.00;92.50
15969;DHT22;8085;53.472;9.794;2023-07-13T00:16:36;15.00;92.60
15969;DHT22;8085;53.472;9.794;2023-07-13T00:19:04;14.90;92.60
15969;DHT22;8085;53.472;9.794;2023-07-13T00:21:31;14.90;92.60
15969;DHT22;8085;53.472;9.794;2023-07-13T00:23:58;14.80;92.60
15969;DHT22;8085;53.472;9.794;2023-07-13T00:26:26;14.90;92.70
15969;DHT22;8085;53.472;9.794;2023-07-13T00:28:54;14.80;92.80
15969;DHT22;8085;53.472;9.794;2023-07-13T00:31:21;14.80;92.90
15969;DHT22;8085;53.472;9.794;2023-07-13T00:33:47;14.80;92.90
15969;DHT22;8085;53.472;9.794;2023-07-13T00:36:15;14.80;93.00
15969;DHT22;8085;53.472;9.794;2023-07-13T00:38:42;14.90;93.10
15969;DHT22;8085;53.472;9.794;2023-07-13T00:41:09;14.80;93.10
15969;DHT22;8085;53.472;9.794;2023-07-13T00:43:36;14.80;93.10
15969;DHT22;8085;53.472;9.794;2023-07-13T00:46:29;14.80;93.20
15969;DHT22;8085;53.472;9.794;2023-07-13T00:48:59;14.80;93.20
15969;DHT22;8085;53.472;9.794;2023-07-13T00:51:28;14.90;93.40
15969;DHT22;8085;53.472;9.794;2023-07-13T00:53:58;14.80;93.30
15969;DHT22;8085;53.472;9.794;2023-07-13T00:56:26;14.90;93.40
15969;DHT22;8085;53.472;9.794;2023-07-13T00:58:53;14.90;93.30
15969;DHT22;8085;53.472;9.794;2023-07-13T01:01:20;14.90;93.40
15969;DHT22;8085;53.472;9.794;2023-07-13T01:03:49;14.90;93.40
15969;DHT22;8085;53.472;9.794;2023-07-13T01:06:16;14.90;93.40
15969;DHT22;8085;53.472;9.794;2023-07-13T01:08:44;14.90;93.40
15969;DHT22;8085;53.472;9.794;2023-07-13T01:11:11;15.00;93.40
15969;DHT22;8085;53.472;9.794;2023-07-13T01:13:37;15.00;93.50
15969;DHT22;8085;53.472;9.794;2023-07-13T01:16:13;15.00;93.50
15969;DHT22;8085;53.472;9.794;2023-07-13T01:18:40;15.00;93.50
15969;DHT22;8085;53.472;9.794;2023-07-13T01:21:09;15.00;93.50
15969;DHT22;8085;53.472;9.794;2023-07-13T01:23:36;15.00;93.50
15969;DHT22;8085;53.472;9.794;2023-07-13T01:26:02;15.00;93.50
15969;DHT22;8085;53.472;9.794;2023-07-13T01:28:29;15.00;93.50
15969;DHT22;8085;53.472;9.794;2023-07-13T01:30:58;15.00;93.50
15969;DHT22;8085;53.472;9.794;2023-07-13T01:33:25;14.90;93.50
15969;DHT22;8085;53.472;9.794;2023-07-13T01:35:52;15.00;93.50
15969;DHT22;8085;53.472;9.794;2023-07-13T01:38:22;14.90;93.40
15969;DHT22;8085;53.472;9.794;2023-07-13T01:40:49;14.90;93.40
15969;DHT22;8085;53.472;9.794;2023-07-13T01:43:16;14.90;93.50
15969;DHT22;8085;53.472;9.794;2023-07-13T01:45:43;15.00;93.50
15969;DHT22;8085;53.472;9.794;2023-07-13T01:48:10;15.00;93.50
15969;DHT22;8085;53.472;9.794;2023-07-13T01:50:38;14.90;93.50
15969;DHT22;8085;53.472;9.794;2023-07-13T01:53:05;14.90;93.50
15969;DHT22;8085;53.472;9.794;2023-07-13T01:55:33;15.00;93.50
15969;DHT22;8085;53.472;9.794;2023-07-13T01:58:01;14.80;93.40
15969;DHT22;8085;53.472;9.794;2023-07-13T02:00:28;14.90;93.40
15969;DHT22;8085;53.472;9.794;2023-07-13T02:02:55;14.80;93.40
15969;DHT22;8085;53.472;9.794;2023-07-13T02:05:22;14.80;93.40
15969;DHT22;8085;53.472;9.794;2023-07-13T02:07:49;14.80;93.40
15969;DHT22;8085;53.472;9.794;2023-07-13T02:10:16;14.80;93.30
15969;DHT22;8085;53.472;9.794;2023-07-13T02:12:45;14.80;93.30
15969;DHT22;8085;53.472;9.794;2023-07-13T02:15:12;14.80;93.30
15969;DHT22;8085;53.472;9.794;2023-07-13T02:17:38;14.70;93.60
15969;DHT22;8085;53.472;9.794;2023-07-13T02:20:07;14.70;93.30
15969;DHT22;8085;53.472;9.794;2023-07-13T02:22:35;14.70;93.30
15969;DHT22;8085;53.472;9.794;2023-07-13T02:25:02;14.70;93.30
15969;DHT22;8085;53.472;9.794;2023-07-13T02:27:28;14.70;93.20
15969;DHT22;8085;53.472;9.794;2023-07-13T02:29:57;14.60;93.20
15969;DHT22;8085;53.472;9.794;2023-07-13T02:32:24;14.60;93.20
15969;DHT22;8085;53.472;9.794;2023-07-13T02:34:51;14.70;93.30
15969;DHT22;8085;53.472;9.794;2023-07-13T02:37:19;14.60;93.20
15969;DHT22;8085;53.472;9.794;2023-07-13T02:39:47;14.70;93.20
15969;DHT22;8085;53.472;9.794;2023-07-13T02:42:14;14.60;93.20
15969;DHT22;8085;53.472;9.794;2023-07-13T02:44:41;14.50;93.10
15969;DHT22;8085;53.472;9.794;2023-07-13T02:47:09;14.50;93.10
15969;DHT22;8085;53.472;9.794;2023-07-13T02:49:36;14.50;93.10
15969;DHT22;8085;53.472;9.794;2023-07-13T02:52:03;14.50;93.10
15969;DHT22;8085;53.472;9.794;2023-07-13T02:54:30;14.50;93.10
15969;DHT22;8085;53.472;9.794;2023-07-13T02:56:57;14.50;93.10
15969;DHT22;8085;53.472;9.794;2023-07-13T02:59:24;14.50;93.10
15969;DHT22;8085;53.472;9.794;2023-07-13T03:01:50;14.40;93.00
15969;DHT22;8085;53.472;9.794;2023-07-13T03:04:19;14.40;93.00
15969;DHT22;8085;53.472;9.794;2023-07-13T03:06:46;14.40;93.00
15969;DHT22;8085;53.472;9.794;2023-07-13T03:09:13;14.30;93.00
15969;DHT22;8085;53.472;9.794;2023-07-13T03:11:40;14.40;93.00
15969;DHT22;8085;53.472;9.794;2023-07-13T03:14:07;14.30;92.90
15969;DHT22;8085;53.472;9.794;2023-07-13T03:16:34;14.30;92.90
15969;DHT22;8085;53.472;9.794;2023-07-13T03:19:02;14.30;92.90
15969;DHT22;8085;53.472;9.794;2023-07-13T03:21:30;14.20;92.90
15969;DHT22;8085;53.472;9.794;2023-07-13T03:23:57;14.20;92.90
15969;DHT22;8085;53.472;9.794;2023-07-13T03:26:24;14.20;92.90
15969;DHT22;8085;53.472;9.794;2023-07-13T03:28:51;14.20;92.90
15969;DHT22;8085;53.472;9.794;2023-07-13T03:31:19;14.20;92.90
15969;DHT22;8085;53.472;9.794;2023-07-13T03:33:46;14.20;92.80
15969;DHT22;8085;53.472;9.794;2023-07-13T03:36:15;14.20;92.80
15969;DHT22;8085;53.472;9.794;2023-07-13T03:38:46;14.10;92.80
15969;DHT22;8085;53.472;9.794;2023-07-13T03:41:14;14.10;92.70
15969;DHT22;8085;53.472;9.794;2023-07-13T03:43:41;14.10;92.80
15969;DHT22;8085;53.472;9.794;2023-07-13T03:46:08;14.10;92.70
15969;DHT22;8085;53.472;9.794;2023-07-13T03:48:35;14.10;92.70
15969;DHT22;8085;53.472;9.794;2023-07-13T03:51:02;14.10;92.70
15969;DHT22;8085;53.472;9.794;2023-07-13T03:53:29;14.10;92.70
15969;DHT22;8085;53.472;9.794;2023-07-13T03:55:57;14.30;92.80
15969;DHT22;8085;53.472;9.794;2023-07-13T03:58:29;14.20;92.70
15969;DHT22;8085;53.472;9.794;2023-07-13T04:00:57;14.20;92.70
15969;DHT22;8085;53.472;9.794;2023-07-13T04:03:24;14.20;92.60
15969;DHT22;8085;53.472;9.794;2023-07-13T04:05:54;14.20;92.60
15969;DHT22;8085;53.472;9.794;2023-07-13T04:08:20;14.20;92.60
15969;DHT22;8085;53.472;9.794;2023-07-13T04:10:47;14.30;92.60
15969;DHT22;8085;53.472;9.794;2023-07-13T04:13:15;14.30;92.60
15969;DHT22;8085;53.472;9.794;2023-07-13T04:15:43;14.30;92.50
15969;DHT22;8085;53.472;9.794;2023-07-13T04:18:10;14.30;92.50
15969;DHT22;8085;53.472;9.794;2023-07-13T04:20:36;14.30;92.50
15969;DHT22;8085;53.472;9.794;2023-07-13T04:23:03;14.30;92.50
15969;DHT22;8085;53.472;9.794;2023-07-13T04:25:30;14.30;92.40
15969;DHT22;8085;53.472;9.794;2023-07-13T04:27:57;14.40;92.50
15969;DHT22;8085;53.472;9.794;2023-07-13T04:30:26;14.50;92.40
15969;DHT22;8085;53.472;9.794;2023-07-13T04:32:53;14.50;92.30
15969;DHT22;8085;53.472;9.794;2023-07-13T04:35:20;14.50;92.20
15969;DHT22;8085;53.472;9.794;2023-07-13T04:37:47;14.50;92.20
15969;DHT22;8085;53.472;9.794;2023-07-13T04:40:16;14.50;92.10
15969;DHT22;8085;53.472;9.794;2023-07-13T04:42:43;14.60;92.00
15969;DHT22;8085;53.472;9.794;2023-07-13T04:45:10;14.70;92.00
15969;DHT22;8085;53.472;9.794;2023-07-13T04:47:38;14.70;92.00
15969;DHT22;8085;53.472;9.794;2023-07-13T04:50:06;14.80;91.90
15969;DHT22;8085;53.472;9.794;2023-07-13T04:52:34;14.80;91.80
15969;DHT22;8085;53.472;9.794;2023-07-13T04:55:01;14.90;91.80
15969;DHT22;8085;53.472;9.794;2023-07-13T04:57:28;15.00;91.90
15969;DHT22;8085;53.472;9.794;2023-07-13T04:59:54;15.10;91.80
15969;DHT22;8085;53.472;9.794;2023-07-13T05:02:21;15.00;91.40
15969;DHT22;8085;53.472;9.794;2023-07-13T05:04:50;15.20;91.30
15969;DHT22;8085;53.472;9.794;2023-07-13T05:07:16;15.20;91.20
15969;DHT22;8085;53.472;9.794;2023-07-13T05:09:43;15.40;90.90
15969;DHT22;8085;53.472;9.794;2023-07-13T05:12:10;15.40;90.60
15969;DHT22;8085;53.472;9.794;2023-07-13T05:14:37;15.50;90.50
15969;DHT22;8085;53.472;9.794;2023-07-13T05:17:04;15.50;90.30
15969;DHT22;8085;53.472;9.794;2023-07-13T05:19:32;15.60;90.20
15969;DHT22;8085;53.472;9.794;2023-07-13T05:22:00;15.60;90.20
15969;DHT22;8085;53.472;9.794;2023-07-13T05:24:28;15.60;90.00
15969;DHT22;8085;53.472;9.794;2023-07-13T05:26:55;15.70;90.10
15969;DHT22;8085;53.472;9.794;2023-07-13T05:29:22;15.60;89.90
15969;DHT22;8085;53.472;9.794;2023-07-13T05:31:49;15.80;90.00
15969;DHT22;8085;53.472;9.794;2023-07-13T05:34:16;15.70;89.70
15969;DHT22;8085;53.472;9.794;2023-07-13T05:36:43;15.70;90.00
15969;DHT22;8085;53.472;9.794;2023-07-13T05:39:11;15.80;90.10
15969;DHT22;8085;53.472;9.794;2023-07-13T05:41:38;15.80;90.10
15969;DHT22;8085;53.472;9.794;2023-07-13T05:44:05;15.70;90.00
15969;DHT22;8085;53.472;9.794;2023-07-13T05:46:32;15.80;89.80
15969;DHT22;8085;53.472;9.794;2023-07-13T05:48:59;15.80;89.60
15969;DHT22;8085;53.472;9.794;2023-07-13T05:51:26;15.90;89.90
15969;DHT22;8085;53.472;9.794;2023-07-13T05:53:53;15.90;89.30
15969;DHT22;8085;53.472;9.794;2023-07-13T05:56:22;16.00;89.30
15969;DHT22;8085;53.472;9.794;2023-07-13T05:58:49;16.00;89.50
15969;DHT22;8085;53.472;9.794;2023-07-13T06:01:16;16.00;89.60
15969;DHT22;8085;53.472;9.794;2023-07-13T06:03:44;16.00;90.00
15969;DHT22;8085;53.472;9.794;2023-07-13T06:06:11;16.10;89.40
15969;DHT22;8085;53.472;9.794;2023-07-13T06:08:38;16.20;89.10
15969;DHT22;8085;53.472;9.794;2023-07-13T06:11:06;16.20;89.00
15969;DHT22;8085;53.472;9.794;2023-07-13T06:13:34;16.20;88.80
15969;DHT22;8085;53.472;9.794;2023-07-13T06:16:02;16.20;88.70
15969;DHT22;8085;53.472;9.794;2023-07-13T06:18:31;16.20;88.60
15969;DHT22;8085;53.472;9.794;2023-07-13T06:20:58;16.30;88.50
15969;DHT22;8085;53.472;9.794;2023-07-13T06:23:25;16.40;88.40
15969;DHT22;8085;53.472;9.794;2023-07-13T06:25:52;16.40;88.20
15969;DHT22;8085;53.472;9.794;2023-07-13T06:28:19;16.50;87.50
15969;DHT22;8085;53.472;9.794;2023-07-13T06:30:47;16.50;87.30
15969;DHT22;8085;53.472;9.794;2023-07-13T06:33:14;16.50;86.60
15969;DHT22;8085;53.472;9.794;2023-07-13T06:35:41;16.50;87.20
15969;DHT22;8085;53.472;9.794;2023-07-13T06:38:07;16.60;87.10
15969;DHT22;8085;53.472;9.794;2023-07-13T06:40:34;16.60;87.30
15969;DHT22;8085;53.472;9.794;2023-07-13T06:43:01;16.80;86.20
15969;DHT22;8085;53.472;9.794;2023-07-13T06:45:28;16.80;86.10
15969;DHT22;8085;53.472;9.794;2023-07-13T06:47:56;16.80;86.30
15969;DHT22;8085;53.472;9.794;2023-07-13T06:50:23;16.90;86.60
15969;DHT22;8085;53.472;9.794;2023-07-13T06:52:50;17.10;85.50
15969;DHT22;8085;53.472;9.794;2023-07-13T06:55:18;17.20;85.10
15969;DHT22;8085;53.472;9.794;2023-07-13T06:57:45;17.30;85.20
15969;DHT22;8085;53.472;9.794;2023-07-13T07:00:13;17.50;83.60
15969;DHT22;8085;53.472;9.794;2023-07-13T07:02:40;17.70;83.90
15969;DHT22;8085;53.472;9.794;2023-07-13T07:05:08;18.10;82.70
15969;DHT22;8085;53.472;9.794;2023-07-13T07:07:35;18.50;82.00
15969;DHT22;8085;53.472;9.794;2023-07-13T07:10:03;19.10;79.40
15969;DHT22;8085;53.472;9.794;2023-07-13T07:12:30;19.70;76.20
15969;DHT22;8085;53.472;9.794;2023-07-13T07:14:57;20.10;73.00
15969;DHT22;8085;53.472;9.794;2023-07-13T07:17:24;20.40;70.40
15969;DHT22;8085;53.472;9.794;2023-07-13T07:19:51;20.10;70.50
15969;DHT22;8085;53.472;9.794;2023-07-13T07:22:20;19.80;71.30
15969;DHT22;8085;53.472;9.794;2023-07-13T07:24:47;19.60;73.00
15969;DHT22;8085;53.472;9.794;2023-07-13T07:27:14;19.60;73.10
15969;DHT22;8085;53.472;9.794;2023-07-13T07:29:41;19.80;72.90
15969;DHT22;8085;53.472;9.794;2023-07-13T07:32:08;19.90;74.20
15969;DHT22;8085;53.472;9.794;2023-07-13T07:34:35;20.00;72.60
15969;DHT22;8085;53.472;9.794;2023-07-13T07:37:02;20.00;72.50
15969;DHT22;8085;53.472;9.794;2023-07-13T07:39:31;19.80;72.00
15969;DHT22;8085;53.472;9.794;2023-07-13T07:41:58;19.80;72.30
15969;DHT22;8085;53.472;9.794;2023-07-13T07:44:25;19.80;73.20
15969;DHT22;8085;53.472;9.794;2023-07-13T07:46:52;19.90;73.00
15969;DHT22;8085;53.472;9.794;2023-07-13T07:49:19;19.70;71.80
15969;DHT22;8085;53.472;9.794;2023-07-13T07:51:46;19.70;73.20
15969;DHT22;8085;53.472;9.794;2023-07-13T07:54:13;19.60;73.40
15969;DHT22;8085;53.472;9.794;2023-07-13T07:56:41;19.70;74.90
15969;DHT22;8085;53.472;9.794;2023-07-13T07:59:09;19.90;74.30
15969;DHT22;8085;53.472;9.794;2023-07-13T08:01:36;19.90;71.50
15969;DHT22;8085;53.472;9.794;2023-07-13T08:04:03;19.90;71.10
15969;DHT22;8085;53.472;9.794;2023-07-13T08:06:31;19.90;72.00
15969;DHT22;8085;53.472;9.794;2023-07-13T08:08:59;19.70;71.80
15969;DHT22;8085;53.472;9.794;2023-07-13T08:11:27;19.60;71.50
15969;DHT22;8085;53.472;9.794;2023-07-13T08:13:55;19.50;73.50
15969;DHT22;8085;53.472;9.794;2023-07-13T08:16:22;19.50;72.80
15969;DHT22;8085;53.472;9.794;2023-07-13T08:18:50;19.50;71.90
15969;DHT22;8085;53.472;9.794;2023-07-13T08:21:17;19.40;73.00
15969;DHT22;8085;53.472;9.794;2023-07-13T08:23:45;19.50;73.10
15969;DHT22;8085;53.472;9.794;2023-07-13T08:26:12;19.60;71.90
15969;DHT22;8085;53.472;9.794;2023-07-13T08:28:41;19.60;72.50
15969;DHT22;8085;53.472;9.794;2023-07-13T08:31:10;19.60;71.90
15969;DHT22;8085;53.472;9.794;2023-07-13T08:33:37;19.60;72.60
15969;DHT22;8085;53.472;9.794;2023-07-13T08:36:07;19.60;72.20
15969;DHT22;8085;53.472;9.794;2023-07-13T08:38:34;19.60;72.70
15969;DHT22;8085;53.472;9.794;2023-07-13T08:41:09;19.50;72.20
15969;DHT22;8085;53.472;9.794;2023-07-13T08:43:37;19.40;73.40
15969;DHT22;8085;53.472;9.794;2023-07-13T08:46:11;19.30;73.10
15969;DHT22;8085;53.472;9.794;2023-07-13T08:48:42;19.20;73.70
15969;DHT22;8085;53.472;9.794;2023-07-13T08:51:24;19.20;74.40
15969;DHT22;8085;53.472;9.794;2023-07-13T08:53:57;19.30;74.80
15969;DHT22;8085;53.472;9.794;2023-07-13T08:56:27;19.50;71.20
15969;DHT22;8085;53.472;9.794;2023-07-13T08:58:57;19.50;71.00
15969;DHT22;8085;53.472;9.794;2023-07-13T09:01:31;19.60;70.30
15969;DHT22;8085;53.472;9.794;2023-07-13T09:04:04;19.80;70.40
15969;DHT22;8085;53.472;9.794;2023-07-13T09:06:42;20.10;67.30
15969;DHT22;8085;53.472;9.794;2023-07-13T09:09:20;20.20;67.20
15969;DHT22;8085;53.472;9.794;2023-07-13T09:11:54;20.20;66.10
15969;DHT22;8085;53.472;9.794;2023-07-13T09:14:40;20.30;66.00
15969;DHT22;8085;53.472;9.794;2023-07-13T09:17:14;20.30;66.50
15969;DHT22;8085;53.472;9.794;2023-07-13T09:19:46;20.40;65.80
15969;DHT22;8085;53.472;9.794;2023-07-13T09:22:18;20.50;66.00
15969;DHT22;8085;53.472;9.794;2023-07-13T09:25:00;20.50;66.50
15969;DHT22;8085;53.472;9.794;2023-07-13T09:27:31;20.50;65.50
15969;DHT22;8085;53.472;9.794;2023-07-13T09:30:10;20.40;65.40
15969;DHT22;8085;53.472;9.794;2023-07-13T09:32:49;20.40;65.20
15969;DHT22;8085;53.472;9.794;2023-07-13T09:35:20;20.50;65.30
15969;DHT22;8085;53.472;9.794;2023-07-13T09:37:48;20.60;65.60
15969;DHT22;8085;53.472;9.794;2023-07-13T09:40:23;20.80;64.90
15969;DHT22;8085;53.472;9.794;2023-07-13T09:42:53;20.80;64.30
15969;DHT22;8085;53.472;9.794;2023-07-13T09:45:27;20.80;62.90
15969;DHT22;8085;53.472;9.794;2023-07-13T09:48:04;20.80;64.10
15969;DHT22;8085;53.472;9.794;2023-07-13T09:50:31;20.90;63.40
15969;DHT22;8085;53.472;9.794;2023-07-13T09:52:58;20.90;63.30
15969;DHT22;8085;53.472;9.794;2023-07-13T09:55:30;20.90;62.70
15969;DHT22;8085;53.472;9.794;2023-07-13T09:57:57;21.00;62.10
15969;DHT22;8085;53.472;9.794;2023-07-13T10:00:27;21.00;60.30
15969;DHT22;8085;53.472;9.794;2023-07-13T10:03:16;20.90;61.50
15969;DHT22;8085;53.472;9.794;2023-07-13T10:05:45;21.00;61.10
15969;DHT22;8085;53.472;9.794;2023-07-13T10:08:23;21.00;59.30
15969;DHT22;8085;53.472;9.794;2023-07-13T10:10:58;21.20;59.60
15969;DHT22;8085;53.472;9.794;2023-07-13T10:13:34;21.40;59.30
15969;DHT22;8085;53.472;9.794;2023-07-13T10:16:04;21.60;58.00
15969;DHT22;8085;53.472;9.794;2023-07-13T10:18:38;21.70;57.20
15969;DHT22;8085;53.472;9.794;2023-07-13T10:21:12;21.80;56.50
15969;DHT22;8085;53.472;9.794;2023-07-13T10:23:40;21.90;56.10
15969;DHT22;8085;53.472;9.794;2023-07-13T10:26:13;21.90;54.60
15969;DHT22;8085;53.472;9.794;2023-07-13T10:28:42;22.00;55.30
15969;DHT22;8085;53.472;9.794;2023-07-13T10:31:12;22.00;55.00
15969;DHT22;8085;53.472;9.794;2023-07-13T10:33:42;22.20;56.20
15969;DHT22;8085;53.472;9.794;2023-07-13T10:36:15;22.20;54.50
15969;DHT22;8085;53.472;9.794;2023-07-13T10:38:45;22.20;55.10
15969;DHT22;8085;53.472;9.794;2023-07-13T10:41:17;22.10;55.50
15969;DHT22;8085;53.472;9.794;2023-07-13T10:43:47;22.10;55.60
15969;DHT22;8085;53.472;9.794;2023-07-13T10:46:19;21.90;56.40
15969;DHT22;8085;53.472;9.794;2023-07-13T10:48:50;22.00;56.80
15969;DHT22;8085;53.472;9.794;2023-07-13T10:51:19;22.00;56.30
15969;DHT22;8085;53.472;9.794;2023-07-13T10:53:48;22.00;55.20
15969;DHT22;8085;53.472;9.794;2023-07-13T10:56:34;22.00;54.80
15969;DHT22;8085;53.472;9.794;2023-07-13T10:59:09;21.90;53.20
15969;DHT22;8085;53.472;9.794;2023-07-13T11:01:49;21.80;54.00
15969;DHT22;8085;53.472;9.794;2023-07-13T11:04:18;21.80;55.40
15969;DHT22;8085;53.472;9.794;2023-07-13T11:06:48;21.80;55.80
15969;DHT22;8085;53.472;9.794;2023-07-13T11:09:36;21.90;55.50
15969;DHT22;8085;53.472;9.794;2023-07-13T11:12:09;22.00;54.70
15969;DHT22;8085;53.472;9.794;2023-07-13T11:15:06;22.30;52.60
15969;DHT22;8085;53.472;9.794;2023-07-13T11:17:46;22.50;52.90
15969;DHT22;8085;53.472;9.794;2023-07-13T11:20:31;22.70;54.30
15969;DHT22;8085;53.472;9.794;2023-07-13T11:23:28;22.80;49.90
15969;DHT22;8085;53.472;9.794;2023-07-13T11:25:56;22.80;50.50
15969;DHT22;8085;53.472;9.794;2023-07-13T11:28:25;22.80;50.40
15969;DHT22;8085;53.472;9.794;2023-07-13T11:31:14;22.80;51.80
15969;DHT22;8085;53.472;9.794;2023-07-13T11:33:57;22.80;48.90
15969;DHT22;8085;53.472;9.794;2023-07-13T11:36:31;22.60;48.90
15969;DHT22;8085;53.472;9.794;2023-07-13T11:39:03;22.50;50.90
15969;DHT22;8085;53.472;9.794;2023-07-13T11:41:34;22.40;52.10
15969;DHT22;8085;53.472;9.794;2023-07-13T11:44:07;22.30;52.40
15969;DHT22;8085;53.472;9.794;2023-07-13T11:46:34;22.30;53.50
15969;DHT22;8085;53.472;9.794;2023-07-13T11:49:01;22.30;53.30
15969;DHT22;8085;53.472;9.794;2023-07-13T11:51:34;22.30;52.60
15969;DHT22;8085;53.472;9.794;2023-07-13T11:54:05;22.40;52.60
15969;DHT22;8085;53.472;9.794;2023-07-13T11:56:33;22.40;52.30
15969;DHT22;8085;53.472;9.794;2023-07-13T11:59:06;22.30;51.60
15969;DHT22;8085;53.472;9.794;2023-07-13T12:01:36;22.20;53.20
15969;DHT22;8085;53.472;9.794;2023-07-13T12:04:18;22.10;55.10
15969;DHT22;8085;53.472;9.794;2023-07-13T12:06:56;21.90;54.10
15969;DHT22;8085;53.472;9.794;2023-07-13T12:09:27;21.60;54.40
15969;DHT22;8085;53.472;9.794;2023-07-13T12:11:56;21.40;54.70
15969;DHT22;8085;53.472;9.794;2023-07-13T12:14:24;21.10;55.70
15969;DHT22;8085;53.472;9.794;2023-07-13T12:16:52;20.70;58.40
15969;DHT22;8085;53.472;9.794;2023-07-13T12:19:22;20.20;60.70
15969;DHT22;8085;53.472;9.794;2023-07-13T12:21:53;19.60;65.00
15969;DHT22;8085;53.472;9.794;2023-07-13T12:24:21;19.10;66.50
15969;DHT22;8085;53.472;9.794;2023-07-13T12:26:53;18.80;69.40
15969;DHT22;8085;53.472;9.794;2023-07-13T12:29:21;18.70;71.20
15969;DHT22;8085;53.472;9.794;2023-07-13T12:31:49;18.70;72.20
15969;DHT22;8085;53.472;9.794;2023-07-13T12:34:19;18.70;73.20
15969;DHT22;8085;53.472;9.794;2023-07-13T12:36:48;18.80;70.10
15969;DHT22;8085;53.472;9.794;2023-07-13T12:39:20;18.90;68.20
15969;DHT22;8085;53.472;9.794;2023-07-13T12:41:48;18.90;67.80
15969;DHT22;8085;53.472;9.794;2023-07-13T12:44:16;18.90;71.30
15969;DHT22;8085;53.472;9.794;2023-07-13T12:46:56;18.80;72.10
15969;DHT22;8085;53.472;9.794;2023-07-13T12:49:26;18.60;73.30
15969;DHT22;8085;53.472;9.794;2023-07-13T12:51:57;18.20;75.80
15969;DHT22;8085;53.472;9.794;2023-07-13T12:54:27;17.90;78.60
15969;DHT22;8085;53.472;9.794;2023-07-13T12:56:55;17.60;80.50
15969;DHT22;8085;53.472;9.794;2023-07-13T12:59:26;17.40;82.40
15969;DHT22;8085;53.472;9.794;2023-07-13T13:01:55;17.30;82.50
15969;DHT22;8085;53.472;9.794;2023-07-13T13:04:23;17.20;82.10
15969;DHT22;8085;53.472;9.794;2023-07-13T13:07:00;17.20;84.90
15969;DHT22;8085;53.472;9.794;2023-07-13T13:09:29;17.30;86.60
15969;DHT22;8085;53.472;9.794;2023-07-13T13:11:56;17.40;85.00
15969;DHT22;8085;53.472;9.794;2023-07-13T13:14:23;17.50;85.10
15969;DHT22;8085;53.472;9.794;2023-07-13T13:16:51;17.60;83.70
15969;DHT22;8085;53.472;9.794;2023-07-13T13:19:21;17.70;83.20
15969;DHT22;8085;53.472;9.794;2023-07-13T13:21:49;17.70;81.20
15969;DHT22;8085;53.472;9.794;2023-07-13T13:24:19;17.70;77.00
15969;DHT22;8085;53.472;9.794;2023-07-13T13:26:48;17.80;76.10
15969;DHT22;8085;53.472;9.794;2023-07-13T13:29:18;17.70;77.40
15969;DHT22;8085;53.472;9.794;2023-07-13T13:31:46;17.70;76.60
15969;DHT22;8085;53.472;9.794;2023-07-13T13:34:15;17.80;77.70
15969;DHT22;8085;53.472;9.794;2023-07-13T13:36:43;17.80;77.80
15969;DHT22;8085;53.472;9.794;2023-07-13T13:39:19;17.90;78.50
15969;DHT22;8085;53.472;9.794;2023-07-13T13:41:48;18.00;79.20
15969;DHT22;8085;53.472;9.794;2023-07-13T13:44:16;18.20;77.70
15969;DHT22;8085;53.472;9.794;2023-07-13T13:46:44;18.20;77.60
15969;DHT22;8085;53.472;9.794;2023-07-13T13:49:14;18.40;75.00
15969;DHT22;8085;53.472;9.794;2023-07-13T13:51:42;18.40;74.50
15969;DHT22;8085;53.472;9.794;2023-07-13T13:54:11;18.50;73.30
15969;DHT22;8085;53.472;9.794;2023-07-13T13:56:41;18.50;72.60
15969;DHT22;8085;53.472;9.794;2023-07-13T13:59:09;18.50;72.20
15969;DHT22;8085;53.472;9.794;2023-07-13T14:01:36;18.50;73.50
15969;DHT22;8085;53.472;9.794;2023-07-13T14:04:04;18.70;71.50
15969;DHT22;8085;53.472;9.794;2023-07-13T14:06:33;18.90;72.40
15969;DHT22;8085;53.472;9.794;2023-07-13T14:09:00;19.20;69.50
15969;DHT22;8085;53.472;9.794;2023-07-13T14:11:29;19.30;68.20
15969;DHT22;8085;53.472;9.794;2023-07-13T14:13:59;19.40;65.90
15969;DHT22;8085;53.472;9.794;2023-07-13T14:16:29;19.40;65.50
15969;DHT22;8085;53.472;9.794;2023-07-13T14:18:58;19.40;66.60
15969;DHT22;8085;53.472;9.794;2023-07-13T14:21:26;19.40;66.40
15969;DHT22;8085;53.472;9.794;2023-07-13T14:23:54;19.50;67.80
15969;DHT22;8085;53.472;9.794;2023-07-13T14:26:23;19.50;65.10
15969;DHT22;8085;53.472;9.794;2023-07-13T14:28:52;19.60;65.00
15969;DHT22;8085;53.472;9.794;2023-07-13T14:31:22;19.60;64.70
15969;DHT22;8085;53.472;9.794;2023-07-13T14:33:51;19.70;66.20
15969;DHT22;8085;53.472;9.794;2023-07-13T14:36:28;19.80;66.60
15969;DHT22;8085;53.472;9.794;2023-07-13T14:38:55;20.00;64.70
15969;DHT22;8085;53.472;9.794;2023-07-13T14:41:23;20.10;65.90
15969;DHT22;8085;53.472;9.794;2023-07-13T14:43:49;20.40;64.70
15969;DHT22;8085;53.472;9.794;2023-07-13T14:46:30;20.40;63.60
15969;DHT22;8085;53.472;9.794;2023-07-13T14:49:02;20.40;64.80
15969;DHT22;8085;53.472;9.794;2023-07-13T14:51:30;20.40;64.50
15969;DHT22;8085;53.472;9.794;2023-07-13T14:54:00;20.20;64.70
15969;DHT22;8085;53.472;9.794;2023-07-13T14:56:27;20.20;65.00
15969;DHT22;8085;53.472;9.794;2023-07-13T14:58:54;20.10;65.20
15969;DHT22;8085;53.472;9.794;2023-07-13T15:01:21;20.00;65.30
15969;DHT22;8085;53.472;9.794;2023-07-13T15:03:50;20.00;66.00
15969;DHT22;8085;53.472;9.794;2023-07-13T15:06:19;20.00;67.70
15969;DHT22;8085;53.472;9.794;2023-07-13T15:08:46;20.00;66.40
15969;DHT22;8085;53.472;9.794;2023-07-13T15:11:14;20.10;67.20
15969;DHT22;8085;53.472;9.794;2023-07-13T15:13:41;20.30;63.20
15969;DHT22;8085;53.472;9.794;2023-07-13T15:16:15;20.40;61.60
15969;DHT22;8085;53.472;9.794;2023-07-13T15:18:44;20.40;61.70
15969;DHT22;8085;53.472;9.794;2023-07-13T15:21:14;20.50;61.70
15969;DHT22;8085;53.472;9.794;2023-07-13T15:23:44;20.50;59.80
15969;DHT22;8085;53.472;9.794;2023-07-13T15:26:13;20.40;59.60
15969;DHT22;8085;53.472;9.794;2023-07-13T15:28:41;20.20;60.20
15969;DHT22;8085;53.472;9.794;2023-07-13T15:31:18;20.10;60.70
15969;DHT22;8085;53.472;9.794;2023-07-13T15:33:45;20.00;61.50
15969;DHT22;8085;53.472;9.794;2023-07-13T15:36:14;20.00;62.20
15969;DHT22;8085;53.472;9.794;2023-07-13T15:38:44;20.00;62.00
15969;DHT22;8085;53.472;9.794;2023-07-13T15:41:17;20.10;61.10
15969;DHT22;8085;53.472;9.794;2023-07-13T15:43:46;20.00;60.20
15969;DHT22;8085;53.472;9.794;2023-07-13T15:46:13;20.10;60.30
15969;DHT22;8085;53.472;9.794;2023-07-13T15:48:40;20.10;58.90
15969;DHT22;8085;53.472;9.794;2023-07-13T15:51:12;20.10;59.90
15969;DHT22;8085;53.472;9.794;2023-07-13T15:53:41;20.10;60.40
15969;DHT22;8085;53.472;9.794;2023-07-13T15:56:18;20.00;59.30
15969;DHT22;8085;53.472;9.794;2023-07-13T15:58:45;20.00;59.80